sensor_id;sensor_type;location;lat;lon;timestamp;pressure;altitude;pressure_sealevel;temperature;humidity
57799;BME280;43626;53.866;30.298;2023-03-25T00:04:10;1008.7;;;11.2;69.4
57799;BME280;43626;53.866;30.298;2023-03-25T00:09:08;1008.7;;;11.2;69.4
57799;BME280;43626;53.866;30.298;2023-03-25T00:13:58;1008.7;;;11.2;69.5
57799;BME280;43626;53.866;30.298;2023-03-25T00:19:26;1008.6;;;11.2;69.8
57799;BME280;43626;53.866;30.298;2023-03-25T00:23:58;1008.6;;;11.2;70.1
57799;BME280;43626;53.866;30.298;2023-03-25T00:29:08;1008.6;;;11.2;70.3
57799;BME280;43626;53.866;30.298;2023-03-25T00:34:28;1008.5;;;11.1;70.6
57799;BME280;43626;53.866;30.298;2023-03-25T00:38:50;1008.5;;;11.1;71.3
57799;BME280;43626;53.866;30.298;2023-03-25T00:44:26;1008.5;;;11.1;71.8
57799;BME280;43626;53.866;30.298;2023-03-25T00:48:40;1008.5;;;11.1;72.1
57799;BME280;43626;53.866;30.298;2023-03-25T00:54:10;1008.4;;;11.1;72.4
57799;BME280;43626;53.866;30.298;2023-03-25T00:58:56;1008.4;;;11.1;72.6
57799;BME280;43626;53.866;30.298;2023-03-25T01:03:52;1008.4;;;11.1;72.6
57799;BME280;43626;53.866;30.298;2023-03-25T01:09:26;1008.3;;;11.1;72.4
57799;BME280;43626;53.866;30.298;2023-03-25T01:14:15;1008.3;;;11.1;72.2
57799;BME280;43626;53.866;30.298;2023-03-25T01:19:28;1008.3;;;11.1;72.2
57799;BME280;43626;53.866;30.298;2023-03-25T01:23:52;1008.2;;;11.1;72
57799;BME280;43626;53.866;30.298;2023-03-25T01:29:19;1008.2;;;11.1;72
57799;BME280;43626;53.866;30.298;2023-03-25T01:34:08;1008.3;;;11.2;72
57799;BME280;43626;53.866;30.298;2023-03-25T01:39:09;1008.2;;;11.2;72.1
57799;BME280;43626;53.866;30.298;2023-03-25T01:45:25;1008.2;;;11.1;72.2
57799;BME280;43626;53.866;30.298;2023-03-25T01:48:58;1008.1;;;11.1;72.2
57799;BME280;43626;53.866;30.298;2023-03-25T01:54:18;1008.1;;;11.1;72.1
57799;BME280;43626;53.866;30.298;2023-03-25T01:58:50;1008.1;;;11.1;72
57799;BME280;43626;53.866;30.298;2023-03-25T02:04:30;1008.1;;;11.2;71.9
57799;BME280;43626;53.866;30.298;2023-03-25T02:09:21;1008.1;;;11.2;71.7
57799;BME280;43626;53.866;30.298;2023-03-25T02:13:40;1008;;;11.2;71.6
57799;BME280;43626;53.866;30.298;2023-03-25T02:24:44;1008.1;;;11.3;71.8
57799;BME280;43626;53.866;30.298;2023-03-25T02:29:33;1008.1;;;11.3;71.9
57799;BME280;43626;53.866;30.298;2023-03-25T02:34:27;1008;;;11.3;72.3
57799;BME280;43626;53.866;30.298;2023-03-25T02:38:40;1008;;;11.3;72.8
57799;BME280;43626;53.866;30.298;2023-03-25T02:44:22;1008;;;11.3;73.1
57799;BME280;43626;53.866;30.298;2023-03-25T02:49:09;1008;;;11.3;73.5
57799;BME280;43626;53.866;30.298;2023-03-25T02:54:29;1007.9;;;11.3;73.7
57799;BME280;43626;53.866;30.298;2023-03-25T02:59:18;1007.8;;;11.3;73.9
57799;BME280;43626;53.866;30.298;2023-03-25T03:03:52;1007.9;;;11.3;73.7
57799;BME280;43626;53.866;30.298;2023-03-25T03:09:21;1007.9;;;11.3;73.6
57799;BME280;43626;53.866;30.298;2023-03-25T03:13:59;1008;;;11.3;73.5
57799;BME280;43626;53.866;30.298;2023-03-25T03:19:31;1007.9;;;11.3;73.6
57799;BME280;43626;53.866;30.298;2023-03-25T03:24:21;1007.9;;;11.3;73.6
57799;BME280;43626;53.866;30.298;2023-03-25T03:28:55;1007.9;;;11.3;73.8
57799;BME280;43626;53.866;30.298;2023-03-25T03:34:21;1008;;;11.2;74.2
57799;BME280;43626;53.866;30.298;2023-03-25T03:39:09;1008;;;11.1;74.6
57799;BME280;43626;53.866;30.298;2023-03-25T03:44:28;1008;;;11.1;74.8
57799;BME280;43626;53.866;30.298;2023-03-25T03:49:22;1008.1;;;11.1;75
57799;BME280;43626;53.866;30.298;2023-03-25T03:53:41;1008.2;;;11.1;75.3
57799;BME280;43626;53.866;30.298;2023-03-25T03:59:22;1008.2;;;11.1;75.4
57799;BME280;43626;53.866;30.298;2023-03-25T04:04:28;1008.2;;;11.1;75.3
57799;BME280;43626;53.866;30.298;2023-03-25T04:09:29;1008.2;;;11.1;75.2
57799;BME280;43626;53.866;30.298;2023-03-25T04:14:18;1008.2;;;11.1;75.2
57799;BME280;43626;53.866;30.298;2023-03-25T04:19:11;1008.1;;;11.1;75.3
57799;BME280;43626;53.866;30.298;2023-03-25T04:24:18;1008.1;;;11.1;75.3
57799;BME280;43626;53.866;30.298;2023-03-25T04:28:50;1008;;;11.1;75.5
57799;BME280;43626;53.866;30.298;2023-03-25T04:34:28;1008.1;;;11.1;75.8
57799;BME280;43626;53.866;30.298;2023-03-25T04:39:20;1008.3;;;11.2;75.9
57799;BME280;43626;53.866;30.298;2023-03-25T04:43:40;1008.3;;;11.2;75.7
57799;BME280;43626;53.866;30.298;2023-03-25T04:48:48;1008.3;;;11.2;75.7
57799;BME280;43626;53.866;30.298;2023-03-25T04:54:02;1008.3;;;11.2;75.8
57799;BME280;43626;53.866;30.298;2023-03-25T04:59:26;1008.2;;;11.2;75.8
57799;BME280;43626;53.866;30.298;2023-03-25T05:04:18;1008.3;;;11.2;75.7
57799;BME280;43626;53.866;30.298;2023-03-25T05:09:13;1008.4;;;11.3;75.5
57799;BME280;43626;53.866;30.298;2023-03-25T05:14:19;1008.4;;;11.3;75.4
57799;BME280;43626;53.866;30.298;2023-03-25T05:19:07;1008.3;;;11.3;75.4
57799;BME280;43626;53.866;30.298;2023-03-25T05:24:28;1008.3;;;11.4;75.4
57799;BME280;43626;53.866;30.298;2023-03-25T05:29:18;1008.4;;;11.4;75.6
57799;BME280;43626;53.866;30.298;2023-03-25T05:34:10;1008.4;;;11.4;75.4
57799;BME280;43626;53.866;30.298;2023-03-25T05:39:18;1008.4;;;11.4;75.5
57799;BME280;43626;53.866;30.298;2023-03-25T05:44:07;1008.4;;;11.5;75.3
57799;BME280;43626;53.866;30.298;2023-03-25T05:49:26;1008.5;;;11.4;75.3
57799;BME280;43626;53.866;30.298;2023-03-25T05:53:52;1008.5;;;11.5;75.3
57799;BME280;43626;53.866;30.298;2023-03-25T05:58:40;1008.5;;;11.5;75.1
57799;BME280;43626;53.866;30.298;2023-03-25T06:04:16;1008.5;;;11.6;75.1
57799;BME280;43626;53.866;30.298;2023-03-25T06:08:54;1008.6;;;11.6;75.1
57799;BME280;43626;53.866;30.298;2023-03-25T06:14:28;1008.6;;;11.5;75.1
57799;BME280;43626;53.866;30.298;2023-03-25T06:19:04;1008.6;;;11.5;75.2
57799;BME280;43626;53.866;30.298;2023-03-25T06:24:12;1008.6;;;11.5;75.4
57799;BME280;43626;53.866;30.298;2023-03-25T06:29:18;1008.7;;;11.5;75.7
57799;BME280;43626;53.866;30.298;2023-03-25T06:34:06;1008.7;;;11.5;76
57799;BME280;43626;53.866;30.298;2023-03-25T06:39:28;1008.9;;;11.5;76.2
57799;BME280;43626;53.866;30.298;2023-03-25T06:43:54;1009.2;;;11.5;74.2
57799;BME280;43626;53.866;30.298;2023-03-25T06:48:40;1009.3;;;11.2;70.7
57799;BME280;43626;53.866;30.298;2023-03-25T06:53:42;1009.3;;;11;71.6
57799;BME280;43626;53.866;30.298;2023-03-25T06:58:50;1009.4;;;10.9;71.7
57799;BME280;43626;53.866;30.298;2023-03-25T07:04:30;1009.3;;;10.8;71.8
57799;BME280;43626;53.866;30.298;2023-03-25T07:09:02;1009.3;;;10.7;71.8
57799;BME280;43626;53.866;30.298;2023-03-25T07:13:40;1009.3;;;10.7;71.9
57799;BME280;43626;53.866;30.298;2023-03-25T07:19:20;1009.3;;;10.7;71.8
57799;BME280;43626;53.866;30.298;2023-03-25T07:23:52;1009.3;;;10.8;71.6
57799;BME280;43626;53.866;30.298;2023-03-25T07:29:24;1009.3;;;10.9;71.4
57799;BME280;43626;53.866;30.298;2023-03-25T07:34:02;1009.3;;;11;71
57799;BME280;43626;53.866;30.298;2023-03-25T07:38:52;1009.3;;;11.1;70.6
57799;BME280;43626;53.866;30.298;2023-03-25T07:44:18;1009.4;;;11.1;70.3
57799;BME280;43626;53.866;30.298;2023-03-25T07:48:40;1009.4;;;11.2;70.3
57799;BME280;43626;53.866;30.298;2023-03-25T07:54:30;1009.4;;;11.2;70.3
57799;BME280;43626;53.866;30.298;2023-03-25T07:59:06;1009.6;;;11.2;70.2
57799;BME280;43626;53.866;30.298;2023-03-25T08:03:40;1009.6;;;11.3;70.3
57799;BME280;43626;53.866;30.298;2023-03-25T08:09:31;1009.6;;;11.2;70.4
57799;BME280;43626;53.866;30.298;2023-03-25T08:14:04;1009.6;;;11.2;70.5
57799;BME280;43626;53.866;30.298;2023-03-25T08:19:30;1009.6;;;11.2;70.7
57799;BME280;43626;53.866;30.298;2023-03-25T08:23:40;1009.7;;;11.1;70.7
57799;BME280;43626;53.866;30.298;2023-03-25T08:28:52;1009.7;;;11.1;70.4
57799;BME280;43626;53.866;30.298;2023-03-25T08:33:55;1009.8;;;11;70.6
57799;BME280;43626;53.866;30.298;2023-03-25T08:38:40;1009.8;;;11;70.6
57799;BME280;43626;53.866;30.298;2023-03-25T08:44:30;1009.8;;;10.9;70.3
57799;BME280;43626;53.866;30.298;2023-03-25T08:48:54;1009.8;;;10.9;70.5
57799;BME280;43626;53.866;30.298;2023-03-25T08:53:49;1009.9;;;11;70.5
57799;BME280;43626;53.866;30.298;2023-03-25T08:58:50;1010;;;10.9;70
57799;BME280;43626;53.866;30.298;2023-03-25T09:03:54;1010;;;10.9;69.7
57799;BME280;43626;53.866;30.298;2023-03-25T09:09:28;1009.9;;;10.8;68.9
57799;BME280;43626;53.866;30.298;2023-03-25T09:14:06;1010;;;10.8;66.3
57799;BME280;43626;53.866;30.298;2023-03-25T09:18:40;1010.1;;;10.7;65.6
57799;BME280;43626;53.866;30.298;2023-03-25T09:24:08;1010.1;;;10.6;63.2
57799;BME280;43626;53.866;30.298;2023-03-25T09:28:50;1010;;;10.6;63.3
57799;BME280;43626;53.866;30.298;2023-03-25T09:34:27;1010.1;;;10.6;62.9
57799;BME280;43626;53.866;30.298;2023-03-25T09:39:04;1010.2;;;10.7;62.4
57799;BME280;43626;53.866;30.298;2023-03-25T09:43:58;1010.2;;;10.7;62.4
57799;BME280;43626;53.866;30.298;2023-03-25T09:49:17;1010.2;;;10.7;62.9
57799;BME280;43626;53.866;30.298;2023-03-25T09:54:07;1010.2;;;10.7;62.8
57799;BME280;43626;53.866;30.298;2023-03-25T09:59:31;1010.1;;;10.9;62.6
57799;BME280;43626;53.866;30.298;2023-03-25T10:04:08;1010.1;;;11;62.1
57799;BME280;43626;53.866;30.298;2023-03-25T10:08:43;1010;;;11;61.2
57799;BME280;43626;53.866;30.298;2023-03-25T10:14:19;1009.9;;;11.1;61
57799;BME280;43626;53.866;30.298;2023-03-25T10:18:54;1010;;;11.2;61
57799;BME280;43626;53.866;30.298;2023-03-25T10:24:27;1009.9;;;11.3;60.6
57799;BME280;43626;53.866;30.298;2023-03-25T10:28:55;1009.9;;;11.3;59.7
57799;BME280;43626;53.866;30.298;2023-03-25T10:33:50;1009.9;;;11.4;59.5
57799;BME280;43626;53.866;30.298;2023-03-25T10:39:19;1009.9;;;11.5;60.1
57799;BME280;43626;53.866;30.298;2023-03-25T10:43:41;1009.9;;;11.6;60.2
57799;BME280;43626;53.866;30.298;2023-03-25T10:49:26;1009.9;;;11.6;59.6
57799;BME280;43626;53.866;30.298;2023-03-25T10:54:03;1009.9;;;11.6;59.7
57799;BME280;43626;53.866;30.298;2023-03-25T10:58:50;1009.8;;;11.7;59.5
57799;BME280;43626;53.866;30.298;2023-03-25T11:04:19;1009.8;;;11.7;58.8
57799;BME280;43626;53.866;30.298;2023-03-25T11:08:54;1009.8;;;11.6;59.5
57799;BME280;43626;53.866;30.298;2023-03-25T11:14:25;1009.8;;;11.6;59.4
57799;BME280;43626;53.866;30.298;2023-03-25T11:19:03;1009.9;;;11.6;59.2
57799;BME280;43626;53.866;30.298;2023-03-25T11:23:49;1009.8;;;11.7;58.9
57799;BME280;43626;53.866;30.298;2023-03-25T11:29:21;1009.8;;;11.8;59.3
57799;BME280;43626;53.866;30.298;2023-03-25T11:34:01;1009.8;;;11.8;59.2
57799;BME280;43626;53.866;30.298;2023-03-25T11:39:28;1009.8;;;11.8;58.9
57799;BME280;43626;53.866;30.298;2023-03-25T11:44:05;1009.8;;;11.9;57.7
57799;BME280;43626;53.866;30.298;2023-03-25T11:48:39;1009.7;;;11.9;56.9
57799;BME280;43626;53.866;30.298;2023-03-25T11:54:17;1009.7;;;12;56.9
57799;BME280;43626;53.866;30.298;2023-03-25T11:58:47;1009.7;;;12;56.7
57799;BME280;43626;53.866;30.298;2023-03-25T12:04:27;1009.7;;;12.1;56.7
57799;BME280;43626;53.866;30.298;2023-03-25T12:09:06;1009.7;;;12.2;57
57799;BME280;43626;53.866;30.298;2023-03-25T12:13:44;1009.7;;;12.3;57.4
57799;BME280;43626;53.866;30.298;2023-03-25T12:19:23;1009.7;;;12.3;57.1
57799;BME280;43626;53.866;30.298;2023-03-25T12:23:42;1009.7;;;12.3;56.7
57799;BME280;43626;53.866;30.298;2023-03-25T12:29:33;1009.7;;;12.4;56.7
57799;BME280;43626;53.866;30.298;2023-03-25T12:34:00;1009.8;;;12.4;55.6
57799;BME280;43626;53.866;30.298;2023-03-25T12:38:43;1009.8;;;12.4;55.4
57799;BME280;43626;53.866;30.298;2023-03-25T12:44:09;1009.8;;;12.3;55.6
57799;BME280;43626;53.866;30.298;2023-03-25T12:48:45;1009.7;;;12.4;55.8
57799;BME280;43626;53.866;30.298;2023-03-25T12:54:22;1009.6;;;12.4;56.1
57799;BME280;43626;53.866;30.298;2023-03-25T12:58:45;1009.6;;;12.4;55.7
57799;BME280;43626;53.866;30.298;2023-03-25T13:03:44;1009.5;;;12.4;55.3
57799;BME280;43626;53.866;30.298;2023-03-25T13:09:14;1009.5;;;12.4;55.4
57799;BME280;43626;53.866;30.298;2023-03-25T13:13:50;1009.6;;;12.4;55.9
57799;BME280;43626;53.866;30.298;2023-03-25T13:19:27;1009.5;;;12.5;56
57799;BME280;43626;53.866;30.298;2023-03-25T13:24:09;1009.5;;;12.5;56.3
57799;BME280;43626;53.866;30.298;2023-03-25T13:28:42;1009.5;;;12.5;56.3
57799;BME280;43626;53.866;30.298;2023-03-25T13:34:20;1009.5;;;12.4;56.4
57799;BME280;43626;53.866;30.298;2023-03-25T13:38:42;1009.5;;;12.4;56
57799;BME280;43626;53.866;30.298;2023-03-25T13:44:29;1009.5;;;12.4;56.3
57799;BME280;43626;53.866;30.298;2023-03-25T13:49:05;1009.5;;;12.4;56.5
57799;BME280;43626;53.866;30.298;2023-03-25T13:53:49;1009.5;;;12.4;56.4
57799;BME280;43626;53.866;30.298;2023-03-25T14:00:29;1009.5;;;12.3;56.4
57799;BME280;43626;53.866;30.298;2023-03-25T14:03:44;1009.5;;;12.3;56.4
57799;BME280;43626;53.866;30.298;2023-03-25T14:13:57;1009.5;;;12.4;55.8
57799;BME280;43626;53.866;30.298;2023-03-25T14:19:02;1009.4;;;12.4;54.9
57799;BME280;43626;53.866;30.298;2023-03-25T14:24:31;1009.4;;;12.4;55.2
57799;BME280;43626;53.866;30.298;2023-03-25T14:28:41;1009.4;;;12.4;55.1
57799;BME280;43626;53.866;30.298;2023-03-25T14:34:20;1009.3;;;12.4;54.8
57799;BME280;43626;53.866;30.298;2023-03-25T14:39:07;1009.3;;;12.4;54.5
57799;BME280;43626;53.866;30.298;2023-03-25T14:44:09;1009.4;;;12.4;53.7
57799;BME280;43626;53.866;30.298;2023-03-25T14:49:47;1009.4;;;12.5;53.5
57799;BME280;43626;53.866;30.298;2023-03-25T14:53:49;1009.4;;;12.5;53.7
57799;BME280;43626;53.866;30.298;2023-03-25T14:59:11;1009.5;;;12.6;53.7
57799;BME280;43626;53.866;30.298;2023-03-25T15:04:22;1009.5;;;12.6;53.6
57799;BME280;43626;53.866;30.298;2023-03-25T15:09:10;1009.5;;;12.6;53.2
57799;BME280;43626;53.866;30.298;2023-03-25T15:14:27;1009.4;;;12.6;53.4
57799;BME280;43626;53.866;30.298;2023-03-25T15:18:58;1009.4;;;12.6;53.3
57799;BME280;43626;53.866;30.298;2023-03-25T15:24:13;1009.4;;;12.5;53.4
57799;BME280;43626;53.866;30.298;2023-03-25T15:29:37;1009.5;;;12.5;53.5
57799;BME280;43626;53.866;30.298;2023-03-25T15:34:16;1009.5;;;12.5;54.4
57799;BME280;43626;53.866;30.298;2023-03-25T15:39:29;1009.5;;;12.5;54.6
57799;BME280;43626;53.866;30.298;2023-03-25T15:43:53;1009.5;;;12.5;54.6
57799;BME280;43626;53.866;30.298;2023-03-25T15:49:13;1009.5;;;12.4;54.6
57799;BME280;43626;53.866;30.298;2023-03-25T15:54:13;1009.5;;;12.4;54.8
57799;BME280;43626;53.866;30.298;2023-03-25T15:59:28;1009.5;;;12.3;55.1
57799;BME280;43626;53.866;30.298;2023-03-25T16:04:30;1009.5;;;12.2;55.4
57799;BME280;43626;53.866;30.298;2023-03-25T16:09:05;1009.4;;;12.1;55.4
57799;BME280;43626;53.866;30.298;2023-03-25T16:14:10;1009.4;;;12;55.8
57799;BME280;43626;53.866;30.298;2023-03-25T16:19:07;1009.4;;;11.9;56.2
57799;BME280;43626;53.866;30.298;2023-03-25T16:24:07;1009.4;;;11.8;56.4
57799;BME280;43626;53.866;30.298;2023-03-25T16:29:25;1009.4;;;11.7;57
57799;BME280;43626;53.866;30.298;2023-03-25T16:34:05;1009.4;;;11.6;57.4
57799;BME280;43626;53.866;30.298;2023-03-25T16:39:12;1009.4;;;11.5;57.5
57799;BME280;43626;53.866;30.298;2023-03-25T16:43:57;1009.4;;;11.5;57.5
57799;BME280;43626;53.866;30.298;2023-03-25T16:49:13;1009.4;;;11.3;57.8
57799;BME280;43626;53.866;30.298;2023-03-25T16:54:31;1009.4;;;11.2;58.2
57799;BME280;43626;53.866;30.298;2023-03-25T16:58:47;1009.4;;;11.1;58.4
57799;BME280;43626;53.866;30.298;2023-03-25T17:04:11;1009.5;;;11;58.6
57799;BME280;43626;53.866;30.298;2023-03-25T17:09:22;1009.5;;;10.9;59.1
57799;BME280;43626;53.866;30.298;2023-03-25T17:14:11;1009.5;;;10.7;60
57799;BME280;43626;53.866;30.298;2023-03-25T17:19:25;1009.5;;;10.6;60.1
57799;BME280;43626;53.866;30.298;2023-03-25T17:23:43;1009.4;;;10.5;60.5
57799;BME280;43626;53.866;30.298;2023-03-25T17:29:09;1009.5;;;10.4;60.5
57799;BME280;43626;53.866;30.298;2023-03-25T17:34:06;1009.5;;;10.3;60.7
57799;BME280;43626;53.866;30.298;2023-03-25T17:39:14;1009.5;;;10.3;60.8
57799;BME280;43626;53.866;30.298;2023-03-25T17:44:32;1009.6;;;10.3;61
57799;BME280;43626;53.866;30.298;2023-03-25T17:48:49;1009.6;;;10.2;61.1
57799;BME280;43626;53.866;30.298;2023-03-25T17:53:49;1009.6;;;10.1;61.2
57799;BME280;43626;53.866;30.298;2023-03-25T17:58:41;1009.6;;;10.1;61.4
57799;BME280;43626;53.866;30.298;2023-03-25T18:04:13;1009.6;;;10.1;61.7
57799;BME280;43626;53.866;30.298;2023-03-25T18:09:20;1009.6;;;10;62
57799;BME280;43626;53.866;30.298;2023-03-25T18:13:41;1009.6;;;9.9;62.1
57799;BME280;43626;53.866;30.298;2023-03-25T18:19:10;1009.6;;;9.8;62.3
57799;BME280;43626;53.866;30.298;2023-03-25T18:24:07;1009.6;;;9.7;62.7
57799;BME280;43626;53.866;30.298;2023-03-25T18:29:31;1009.7;;;9.7;62.8
57799;BME280;43626;53.866;30.298;2023-03-25T18:34:31;1009.7;;;9.7;62.9
57799;BME280;43626;53.866;30.298;2023-03-25T18:38:57;1009.7;;;9.7;63
57799;BME280;43626;53.866;30.298;2023-03-25T18:44:11;1009.7;;;9.7;62.8
57799;BME280;43626;53.866;30.298;2023-03-25T18:48:41;1009.6;;;9.6;62.8
57799;BME280;43626;53.866;30.298;2023-03-25T18:54:11;1009.6;;;9.6;63.1
57799;BME280;43626;53.866;30.298;2023-03-25T18:59:14;1009.5;;;9.6;63.2
57799;BME280;43626;53.866;30.298;2023-03-25T19:03:51;1009.5;;;9.6;63.6
57799;BME280;43626;53.866;30.298;2023-03-25T19:09:14;1009.4;;;9.5;63.9
57799;BME280;43626;53.866;30.298;2023-03-25T19:14:09;1009.4;;;9.5;63.8
57799;BME280;43626;53.866;30.298;2023-03-25T19:19:13;1009.3;;;9.5;63.7
57799;BME280;43626;53.866;30.298;2023-03-25T19:24:29;1009.3;;;9.4;63.6
57799;BME280;43626;53.866;30.298;2023-03-25T19:28:41;1009.2;;;9.4;63.6
57799;BME280;43626;53.866;30.298;2023-03-25T19:33:43;1009.2;;;9.4;63.6
57799;BME280;43626;53.866;30.298;2023-03-25T19:38:41;1009.1;;;9.4;63.7
57799;BME280;43626;53.866;30.298;2023-03-25T19:43:43;1009.1;;;9.4;63.6
57799;BME280;43626;53.866;30.298;2023-03-25T19:49:31;1009.2;;;9.3;63.6
57799;BME280;43626;53.866;30.298;2023-03-25T19:53:41;1009.2;;;9.2;63.7
57799;BME280;43626;53.866;30.298;2023-03-25T19:59:05;1009.1;;;9.2;64
57799;BME280;43626;53.866;30.298;2023-03-25T20:03:51;1009;;;9.1;64.2
57799;BME280;43626;53.866;30.298;2023-03-25T20:09:13;1008.9;;;9.1;64.5
57799;BME280;43626;53.866;30.298;2023-03-25T20:14:31;1008.9;;;9.2;64.5
57799;BME280;43626;53.866;30.298;2023-03-25T20:18:41;1008.7;;;9.1;64.3
57799;BME280;43626;53.866;30.298;2023-03-25T20:24:13;1008.7;;;9.1;64.2
57799;BME280;43626;53.866;30.298;2023-03-25T20:28:57;1008.7;;;9;64.3
57799;BME280;43626;53.866;30.298;2023-03-25T20:34:13;1008.6;;;9;64.3
57799;BME280;43626;53.866;30.298;2023-03-25T20:39:29;1008.6;;;9;64.3
57799;BME280;43626;53.866;30.298;2023-03-25T20:43:51;1008.6;;;9;64.1
57799;BME280;43626;53.866;30.298;2023-03-25T20:49:13;1008.6;;;8.9;64.1
57799;BME280;43626;53.866;30.298;2023-03-25T20:53:51;1008.6;;;8.8;64.6
57799;BME280;43626;53.866;30.298;2023-03-25T20:59:27;1008.6;;;8.7;64.9
57799;BME280;43626;53.866;30.298;2023-03-25T21:04:17;1008.5;;;8.8;65.1
57799;BME280;43626;53.866;30.298;2023-03-25T21:08:41;1008.5;;;8.8;65.2
57799;BME280;43626;53.866;30.298;2023-03-25T21:14:11;1008.5;;;8.8;65
57799;BME280;43626;53.866;30.298;2023-03-25T21:18:51;1008.5;;;8.8;65
57799;BME280;43626;53.866;30.298;2023-03-25T21:23:53;1008.5;;;8.8;65
57799;BME280;43626;53.866;30.298;2023-03-25T21:29:27;1008.4;;;8.8;64.9
57799;BME280;43626;53.866;30.298;2023-03-25T21:33:41;1008.4;;;8.8;64.8
57799;BME280;43626;53.866;30.298;2023-03-25T21:39:11;1008.4;;;8.8;64.8
57799;BME280;43626;53.866;30.298;2023-03-25T21:44:09;1008.4;;;8.8;64.8
57799;BME280;43626;53.866;30.298;2023-03-25T21:49:11;1008.4;;;8.8;64.9
57799;BME280;43626;53.866;30.298;2023-03-25T21:54:25;1008.4;;;8.7;64.8
57799;BME280;43626;53.866;30.298;2023-03-25T21:58:51;1008.3;;;8.7;64.9
57799;BME280;43626;53.866;30.298;2023-03-25T22:04:11;1008.2;;;8.7;65
57799;BME280;43626;53.866;30.298;2023-03-25T22:09:09;1008.2;;;8.6;65.1
57799;BME280;43626;53.866;30.298;2023-03-25T22:14:09;1008.2;;;8.6;65.3
57799;BME280;43626;53.866;30.298;2023-03-25T22:18:43;1008.2;;;8.6;65.1
57799;BME280;43626;53.866;30.298;2023-03-25T22:23:41;1008.2;;;8.6;65.2
57799;BME280;43626;53.866;30.298;2023-03-25T22:29:08;1008.2;;;8.6;65.2
57799;BME280;43626;53.866;30.298;2023-03-25T22:33:57;1008.2;;;8.6;65
57799;BME280;43626;53.866;30.298;2023-03-25T22:39:09;1008.2;;;8.6;65.2
57799;BME280;43626;53.866;30.298;2023-03-25T22:44:27;1008.1;;;8.6;65.2
57799;BME280;43626;53.866;30.298;2023-03-25T22:48:51;1008.1;;;8.6;65.2
57799;BME280;43626;53.866;30.298;2023-03-25T22:53:51;1008;;;8.5;65.3
57799;BME280;43626;53.866;30.298;2023-03-25T22:59:17;1008;;;8.5;65.3
57799;BME280;43626;53.866;30.298;2023-03-25T23:04:27;1008;;;8.4;65.2
57799;BME280;43626;53.866;30.298;2023-03-25T23:09:02;1007.9;;;8.3;64.8
57799;BME280;43626;53.866;30.298;2023-03-25T23:14:02;1007.9;;;8.3;65.1
57799;BME280;43626;53.866;30.298;2023-03-25T23:19:04;1007.9;;;8.3;65.1
57799;BME280;43626;53.866;30.298;2023-03-25T23:24:15;1007.8;;;8.3;65.1
57799;BME280;43626;53.866;30.298;2023-03-25T23:29:29;1007.8;;;8.3;65.3
57799;BME280;43626;53.866;30.298;2023-03-25T23:34:00;1007.8;;;8.3;65.2
57799;BME280;43626;53.866;30.298;2023-03-25T23:38:41;1007.7;;;8.3;65.4
57799;BME280;43626;53.866;30.298;2023-03-25T23:44:11;1007.7;;;8.3;65.6
57799;BME280;43626;53.866;30.298;2023-03-25T23:49:19;1007.6;;;8.3;65.7
57799;BME280;43626;53.866;30.298;2023-03-25T23:54:29;1007.6;;;8.3;65.8
57799;BME280;43626;53.866;30.298;2023-03-25T23:59:09;1007.6;;;8.3;65.8
